Time;durP1;ratioP1;P1;durP2;ratioP2;P2;SDS_P1;SDS_P2;PMS_P1;PMS_P2;Temp;Humidity;BMP_temperature;BMP_pressure;BME280_temperature;BME280_humidity;BME280_pressure;Samples;Min_cycle;Max_cycle;Signal;HPM_P1;HPM_P2
2023/08/02 00:00:57;;;;;;;2.45;1.08;;;;;;;;;;4879674;29;20504;-80
2023/08/02 00:03:23;;;;;;;3.70;1.30;;;;;;;;;;4878626;29;20029;-80
2023/08/02 00:05:56;;;;;;;3.30;1.33;;;;;;;;;;4894587;29;20058;-80
2023/08/02 00:08:22;;;;;;;3.83;1.20;;;;;;;;;;4889134;29;20036;-80
2023/08/02 00:10:48;;;;;;;3.90;1.08;;;;;;;;;;4864017;29;20040;-80
2023/08/02 00:13:13;;;;;;;4.10;1.27;;;;;;;;;;4878576;29;20045;-79
2023/08/02 00:15:39;;;;;;;2.83;1.08;;;;;;;;;;4878807;29;20446;-80
2023/08/02 00:18:05;;;;;;;8.20;1.50;;;;;;;;;;4892758;29;20037;-81
2023/08/02 00:20:31;;;;;;;3.50;1.20;;;;;;;;;;4877902;29;20040;-81
2023/08/02 00:22:56;;;;;;;4.43;1.10;;;;;;;;;;4880494;29;20037;-79
2023/08/02 00:25:23;;;;;;;2.75;1.00;;;;;;;;;;4879695;29;20054;-81
2023/08/02 00:27:48;;;;;;;4.35;1.17;;;;;;;;;;4863981;29;20136;-79
2023/08/02 00:30:14;;;;;;;5.65;1.17;;;;;;;;;;4878502;29;20041;-80
2023/08/02 00:32:44;;;;;;;2.95;1.05;;;;;;;;;;4893055;29;20033;-79
2023/08/02 00:35:10;;;;;;;6.40;1.63;;;;;;;;;;4862463;29;20052;-81
2023/08/02 00:37:35;;;;;;;2.13;0.98;;;;;;;;;;4876585;29;20033;-80
2023/08/02 00:40:01;;;;;;;8.57;1.13;;;;;;;;;;4893380;29;20041;-80
2023/08/02 00:42:27;;;;;;;6.85;1.30;;;;;;;;;;4877081;29;20029;-81
2023/08/02 00:44:53;;;;;;;6.95;2.25;;;;;;;;;;4876183;29;20121;-80
2023/08/02 00:47:18;;;;;;;5.85;1.60;;;;;;;;;;4874537;29;20123;-81
2023/08/02 00:49:45;;;;;;;5.82;1.20;;;;;;;;;;4870410;29;20037;-80
2023/08/02 00:52:11;;;;;;;5.47;1.25;;;;;;;;;;4869063;29;20034;-80
2023/08/02 00:54:37;;;;;;;2.40;1.20;;;;;;;;;;4870255;29;20044;-81
2023/08/02 00:57:03;;;;;;;3.95;1.67;;;;;;;;;;4872033;29;20124;-82
2023/08/02 00:59:29;;;;;;;9.25;1.60;;;;;;;;;;4871570;29;20036;-80
2023/08/02 01:01:55;;;;;;;3.85;1.15;;;;;;;;;;4873828;29;20085;-81
2023/08/02 01:04:21;;;;;;;6.25;1.55;;;;;;;;;;4872479;29;20058;-80
2023/08/02 01:06:50;;;;;;;4.85;1.40;;;;;;;;;;4856442;29;20045;-81
2023/08/02 01:09:22;;;;;;;4.85;1.27;;;;;;;;;;4886017;29;20034;-79
2023/08/02 01:11:53;;;;;;;3.70;1.25;;;;;;;;;;4869235;29;20033;-81
2023/08/02 01:14:20;;;;;;;5.57;1.50;;;;;;;;;;4881945;29;20040;-80
2023/08/02 01:16:49;;;;;;;6.30;1.80;;;;;;;;;;4881063;29;20042;-81
2023/08/02 01:19:19;;;;;;;9.30;1.40;;;;;;;;;;4836145;29;20053;-80
2023/08/02 01:21:45;;;;;;;4.40;1.50;;;;;;;;;;4865304;29;20033;-80
2023/08/02 01:24:11;;;;;;;4.20;1.35;;;;;;;;;;4880788;29;20049;-79
2023/08/02 01:26:38;;;;;;;6.10;1.17;;;;;;;;;;4865431;29;20083;-80
2023/08/02 01:29:06;;;;;;;3.22;1.17;;;;;;;;;;4850336;29;20062;-81
2023/08/02 01:31:33;;;;;;;3.58;1.20;;;;;;;;;;4881017;29;20044;-80
2023/08/02 01:33:59;;;;;;;7.35;1.40;;;;;;;;;;4864855;29;20034;-80
2023/08/02 01:36:25;;;;;;;2.83;1.10;;;;;;;;;;4865640;29;20037;-79
2023/08/02 01:38:51;;;;;;;3.42;1.40;;;;;;;;;;4864353;29;20127;-80
2023/08/02 01:41:17;;;;;;;3.78;1.00;;;;;;;;;;4853118;29;20026;-80
2023/08/02 01:43:42;;;;;;;3.05;1.00;;;;;;;;;;4872327;29;20049;-79
2023/08/02 01:46:09;;;;;;;5.00;1.38;;;;;;;;;;4864105;29;20026;-80
2023/08/02 01:48:34;;;;;;;4.68;1.30;;;;;;;;;;4860197;29;20527;-80
2023/08/02 01:51:00;;;;;;;4.15;1.25;;;;;;;;;;4863707;29;20480;-80
2023/08/02 01:53:26;;;;;;;4.05;1.10;;;;;;;;;;4863509;29;20068;-80
2023/08/02 01:55:51;;;;;;;4.40;1.30;;;;;;;;;;4878330;29;20034;-79
2023/08/02 01:58:17;;;;;;;4.18;1.30;;;;;;;;;;4865316;29;20086;-79
2023/08/02 02:00:43;;;;;;;2.80;1.10;;;;;;;;;;4846870;29;20086;-80
2023/08/02 02:03:12;;;;;;;3.90;1.30;;;;;;;;;;4855238;29;20053;-80
2023/08/02 02:05:37;;;;;;;2.00;1.00;;;;;;;;;;4865864;29;20033;-80
2023/08/02 02:08:03;;;;;;;3.78;1.40;;;;;;;;;;4866840;29;20037;-79
2023/08/02 02:10:29;;;;;;;5.70;1.50;;;;;;;;;;4882855;29;20045;-79
2023/08/02 02:12:55;;;;;;;6.82;1.20;;;;;;;;;;4852644;29;20125;-80
2023/08/02 02:15:21;;;;;;;3.33;1.20;;;;;;;;;;4867900;29;20069;-80
2023/08/02 02:17:46;;;;;;;7.20;2.38;;;;;;;;;;4868735;29;20496;-79
2023/08/02 02:20:13;;;;;;;6.93;1.55;;;;;;;;;;4857993;29;20094;-80
2023/08/02 02:22:38;;;;;;;6.28;1.23;;;;;;;;;;4868239;29;20025;-79
2023/08/02 02:25:04;;;;;;;5.13;1.75;;;;;;;;;;4868394;29;20057;-80
2023/08/02 02:27:30;;;;;;;5.90;1.20;;;;;;;;;;4869521;29;20044;-79
2023/08/02 02:29:55;;;;;;;3.15;1.08;;;;;;;;;;4854610;29;20440;-79
2023/08/02 02:32:21;;;;;;;5.55;1.30;;;;;;;;;;4876640;29;20030;-80
2023/08/02 02:34:47;;;;;;;3.30;1.10;;;;;;;;;;4879078;29;20090;-80
2023/08/02 02:37:12;;;;;;;2.70;1.02;;;;;;;;;;4862385;29;20041;-81
2023/08/02 02:39:38;;;;;;;5.00;1.13;;;;;;;;;;4872052;29;20037;-80
2023/08/02 02:42:04;;;;;;;3.25;1.20;;;;;;;;;;4870341;29;20038;-79
2023/08/02 02:44:41;;;;;;;4.82;1.10;;;;;;;;;;4887111;29;20030;-80
2023/08/02 02:47:07;;;;;;;3.28;1.23;;;;;;;;;;4868025;29;20033;-80
2023/08/02 02:49:33;;;;;;;2.75;1.20;;;;;;;;;;4867966;29;20033;-80
2023/08/02 02:51:59;;;;;;;3.30;1.30;;;;;;;;;;4854029;29;20082;-80
2023/08/02 02:54:25;;;;;;;3.95;1.00;;;;;;;;;;4868737;29;20061;-80
2023/08/02 02:56:51;;;;;;;4.82;1.40;;;;;;;;;;4868150;29;20025;-80
2023/08/02 02:59:16;;;;;;;6.30;1.10;;;;;;;;;;4868075;29;20068;-80
2023/08/02 03:01:42;;;;;;;6.07;1.35;;;;;;;;;;4855174;29;20361;-80
2023/08/02 03:04:08;;;;;;;5.35;1.40;;;;;;;;;;4871480;29;20097;-80
2023/08/02 03:06:34;;;;;;;7.10;1.20;;;;;;;;;;4857595;29;20045;-81
2023/08/02 03:08:59;;;;;;;4.63;1.27;;;;;;;;;;4866541;29;20037;-81
2023/08/02 03:11:25;;;;;;;4.93;1.40;;;;;;;;;;4873903;29;20557;-80
2023/08/02 03:13:51;;;;;;;4.65;1.25;;;;;;;;;;4873389;29;20029;-79
2023/08/02 03:16:16;;;;;;;6.15;1.25;;;;;;;;;;4873813;29;20029;-80
2023/08/02 03:18:42;;;;;;;6.35;1.23;;;;;;;;;;4860381;29;20093;-80
2023/08/02 03:21:08;;;;;;;5.53;1.35;;;;;;;;;;4878443;29;20064;-80
2023/08/02 03:23:34;;;;;;;4.35;1.10;;;;;;;;;;4877643;29;20033;-80
2023/08/02 03:25:59;;;;;;;7.35;1.48;;;;;;;;;;4892846;29;20097;-80
2023/08/02 03:28:25;;;;;;;3.33;1.10;;;;;;;;;;4877651;29;20033;-79
2023/08/02 03:30:53;;;;;;;5.03;1.38;;;;;;;;;;4878902;29;20097;-80
2023/08/02 03:33:19;;;;;;;5.40;1.80;;;;;;;;;;4862942;29;20049;-79
2023/08/02 03:35:45;;;;;;;5.70;1.50;;;;;;;;;;4861364;29;20037;-80
2023/08/02 03:38:10;;;;;;;5.97;1.48;;;;;;;;;;4864999;29;20038;-80
2023/08/02 03:40:36;;;;;;;5.47;1.52;;;;;;;;;;4874115;29;20025;-80
2023/08/02 03:43:02;;;;;;;3.13;1.33;;;;;;;;;;4871463;29;20033;-80
2023/08/02 03:45:27;;;;;;;7.05;1.30;;;;;;;;;;4857684;29;20097;-80
2023/08/02 03:47:53;;;;;;;4.50;1.45;;;;;;;;;;4873656;29;20033;-80
2023/08/02 03:50:19;;;;;;;5.13;1.20;;;;;;;;;;4874009;29;20034;-80
2023/08/02 03:52:44;;;;;;;3.80;1.13;;;;;;;;;;4871054;29;20061;-79
2023/08/02 03:55:10;;;;;;;3.70;1.15;;;;;;;;;;4862036;29;20033;-79
2023/08/02 03:57:36;;;;;;;4.68;1.35;;;;;;;;;;4873971;29;20081;-80
2023/08/02 04:00:02;;;;;;;4.95;1.38;;;;;;;;;;4867259;29;20056;-80
2023/08/02 04:02:38;;;;;;;4.65;1.00;;;;;;;;;;4877688;29;20030;-79
2023/08/02 04:05:03;;;;;;;4.50;1.10;;;;;;;;;;4893831;29;20046;-81
2023/08/02 04:07:29;;;;;;;3.92;1.25;;;;;;;;;;4863763;29;20097;-80
2023/08/02 04:09:55;;;;;;;3.53;1.38;;;;;;;;;;4869166;29;20037;-80
2023/08/02 04:12:21;;;;;;;3.42;1.25;;;;;;;;;;4860239;29;20037;-80
2023/08/02 04:14:46;;;;;;;5.80;1.55;;;;;;;;;;4874095;29;20424;-80
2023/08/02 04:17:12;;;;;;;5.05;1.40;;;;;;;;;;4876153;29;20322;-80
2023/08/02 04:19:38;;;;;;;6.93;1.20;;;;;;;;;;4874840;29;20033;-80
2023/08/02 04:22:03;;;;;;;3.38;1.20;;;;;;;;;;4876314;29;20042;-80
2023/08/02 04:24:29;;;;;;;3.63;1.20;;;;;;;;;;4872070;29;20033;-80
2023/08/02 04:26:55;;;;;;;3.97;1.25;;;;;;;;;;4883900;29;20037;-80
2023/08/02 04:29:20;;;;;;;5.15;1.38;;;;;;;;;;4868472;29;20048;-80
2023/08/02 04:31:46;;;;;;;6.00;1.20;;;;;;;;;;4851134;29;20037;-80
2023/08/02 04:34:12;;;;;;;3.63;1.00;;;;;;;;;;4834800;29;20082;-80
2023/08/02 04:36:38;;;;;;;5.13;1.30;;;;;;;;;;4878220;29;20029;-79
2023/08/02 04:39:03;;;;;;;3.78;1.20;;;;;;;;;;4865862;29;20057;-79
2023/08/02 04:41:29;;;;;;;3.78;1.30;;;;;;;;;;4850486;29;20125;-79
2023/08/02 04:43:55;;;;;;;6.82;1.52;;;;;;;;;;4883621;29;20030;-79
2023/08/02 04:46:22;;;;;;;2.83;1.00;;;;;;;;;;4870183;29;20029;-81
2023/08/02 04:48:47;;;;;;;4.03;1.30;;;;;;;;;;4885016;29;20053;-80
2023/08/02 04:51:13;;;;;;;4.07;1.40;;;;;;;;;;4870483;29;20038;-80
2023/08/02 04:53:40;;;;;;;4.47;1.38;;;;;;;;;;4869700;29;20057;-80
2023/08/02 04:56:09;;;;;;;4.65;1.95;;;;;;;;;;4870687;29;20045;-81
2023/08/02 04:58:35;;;;;;;5.97;1.15;;;;;;;;;;4884261;29;20034;-79
2023/08/02 05:01:01;;;;;;;2.95;1.05;;;;;;;;;;4853779;29;20424;-79
2023/08/02 05:03:28;;;;;;;6.32;1.27;;;;;;;;;;4884165;29;20036;-79
2023/08/02 05:06:00;;;;;;;3.88;1.23;;;;;;;;;;4868999;29;20037;-80
2023/08/02 05:08:28;;;;;;;5.53;1.40;;;;;;;;;;4875708;29;20048;-79
2023/08/02 05:10:54;;;;;;;3.28;1.17;;;;;;;;;;4885912;29;20037;-80
2023/08/02 05:13:22;;;;;;;5.72;1.25;;;;;;;;;;4867081;29;20025;-80
2023/08/02 05:15:47;;;;;;;4.55;1.63;;;;;;;;;;4882183;29;20042;-79
2023/08/02 05:18:13;;;;;;;6.07;1.73;;;;;;;;;;4849831;29;20033;-79
2023/08/02 05:20:39;;;;;;;6.07;1.63;;;;;;;;;;4879698;29;20037;-79
2023/08/02 05:23:05;;;;;;;6.22;1.30;;;;;;;;;;4848815;29;20029;-79
2023/08/02 05:25:31;;;;;;;3.72;1.35;;;;;;;;;;4864197;29;20033;-79
2023/08/02 05:27:57;;;;;;;11.70;1.42;;;;;;;;;;4865787;29;20083;-79
2023/08/02 05:30:23;;;;;;;4.97;1.38;;;;;;;;;;4866638;29;20037;-79
2023/08/02 05:32:48;;;;;;;4.18;1.23;;;;;;;;;;4855826;29;20042;-80
2023/08/02 05:35:14;;;;;;;6.65;1.50;;;;;;;;;;4875609;29;20029;-80
2023/08/02 05:37:40;;;;;;;4.20;1.33;;;;;;;;;;4874557;29;20033;-80
2023/08/02 05:40:06;;;;;;;5.65;1.42;;;;;;;;;;4852362;29;20428;-79
2023/08/02 05:42:33;;;;;;;9.15;1.80;;;;;;;;;;4867922;29;20025;-79
2023/08/02 05:44:59;;;;;;;5.22;1.45;;;;;;;;;;4852957;29;20030;-80
2023/08/02 05:47:25;;;;;;;3.92;1.50;;;;;;;;;;4866749;29;20033;-80
2023/08/02 05:49:50;;;;;;;4.65;1.40;;;;;;;;;;4853014;29;20165;-80
2023/08/02 05:52:16;;;;;;;5.35;1.60;;;;;;;;;;4868851;29;20037;-80
2023/08/02 05:54:41;;;;;;;7.80;2.05;;;;;;;;;;4852448;29;20110;-78
2023/08/02 05:57:07;;;;;;;3.40;1.50;;;;;;;;;;4849604;29;20124;-79
2023/08/02 05:59:33;;;;;;;5.53;1.73;;;;;;;;;;4819134;29;20416;-80
2023/08/02 06:01:59;;;;;;;8.98;1.73;;;;;;;;;;4850626;29;20102;-80
2023/08/02 06:04:25;;;;;;;3.85;1.83;;;;;;;;;;4846258;29;20042;-81
2023/08/02 06:06:51;;;;;;;7.28;1.60;;;;;;;;;;4867365;29;20400;-80
2023/08/02 06:09:19;;;;;;;5.30;1.75;;;;;;;;;;4847875;29;20049;-79
2023/08/02 06:11:45;;;;;;;4.45;2.05;;;;;;;;;;4849099;29;20038;-79
2023/08/02 06:14:11;;;;;;;5.32;1.70;;;;;;;;;;4850098;29;20033;-79
2023/08/02 06:16:36;;;;;;;7.57;1.65;;;;;;;;;;4846425;29;20038;-80
2023/08/02 06:19:02;;;;;;;4.05;1.70;;;;;;;;;;4866637;29;20612;-80
2023/08/02 06:21:27;;;;;;;5.70;1.88;;;;;;;;;;4870443;29;20025;-79
2023/08/02 06:23:53;;;;;;;5.55;1.63;;;;;;;;;;4868637;29;20029;-79
2023/08/02 06:26:19;;;;;;;3.83;1.52;;;;;;;;;;4871002;29;20030;-79
2023/08/02 06:28:44;;;;;;;5.40;1.40;;;;;;;;;;4870527;29;20041;-79
2023/08/02 06:31:10;;;;;;;5.68;1.73;;;;;;;;;;4856083;29;20037;-79
2023/08/02 06:33:36;;;;;;;5.65;2.30;;;;;;;;;;4854852;29;20477;-79
2023/08/02 06:36:02;;;;;;;4.30;1.70;;;;;;;;;;4886132;29;20026;-79
2023/08/02 06:38:27;;;;;;;6.53;1.70;;;;;;;;;;4872151;29;20204;-79
2023/08/02 06:40:53;;;;;;;9.02;1.95;;;;;;;;;;4873602;29;20401;-79
2023/08/02 06:43:22;;;;;;;4.05;1.45;;;;;;;;;;4890674;29;20085;-81
2023/08/02 06:45:48;;;;;;;3.55;1.55;;;;;;;;;;4881086;29;20013;-81
2023/08/02 06:48:16;;;;;;;5.25;1.60;;;;;;;;;;4879943;29;20044;-80
2023/08/02 06:50:42;;;;;;;4.05;1.45;;;;;;;;;;4883574;29;20142;-81
2023/08/02 06:53:08;;;;;;;6.13;2.50;;;;;;;;;;4869702;29;20037;-81
2023/08/02 06:55:34;;;;;;;5.68;1.90;;;;;;;;;;4883388;29;20038;-81
2023/08/02 06:58:00;;;;;;;9.25;1.90;;;;;;;;;;4852803;29;20369;-81
2023/08/02 07:00:29;;;;;;;9.77;1.92;;;;;;;;;;4898333;29;20037;-81
2023/08/02 07:02:58;;;;;;;6.03;1.92;;;;;;;;;;4882988;29;20021;-82
2023/08/02 07:05:26;;;;;;;4.50;1.63;;;;;;;;;;4874961;29;20108;-85
2023/08/02 07:07:52;;;;;;;6.80;1.73;;;;;;;;;;4853865;29;20145;-84
2023/08/02 07:10:18;;;;;;;5.20;1.75;;;;;;;;;;4873033;29;20037;-84
2023/08/02 07:12:44;;;;;;;6.25;1.67;;;;;;;;;;4873969;29;20069;-83
2023/08/02 07:15:10;;;;;;;5.50;1.77;;;;;;;;;;4875370;29;20034;-82
2023/08/02 07:17:36;;;;;;;6.68;2.25;;;;;;;;;;4875063;29;20030;-84
2023/08/02 07:20:01;;;;;;;4.30;1.60;;;;;;;;;;4877469;29;20123;-82
2023/08/02 07:22:27;;;;;;;5.07;1.52;;;;;;;;;;4879542;29;20044;-81
2023/08/02 07:24:53;;;;;;;5.18;2.20;;;;;;;;;;4882768;29;20041;-82
2023/08/02 07:27:19;;;;;;;7.88;1.63;;;;;;;;;;4883339;29;20033;-82
2023/08/02 07:29:48;;;;;;;5.20;1.75;;;;;;;;;;4882627;29;20029;-81
2023/08/02 07:32:14;;;;;;;5.70;1.70;;;;;;;;;;4893291;29;20113;-82
2023/08/02 07:34:40;;;;;;;5.25;1.77;;;;;;;;;;4875516;29;20058;-86
2023/08/02 07:37:06;;;;;;;5.10;1.60;;;;;;;;;;4862147;29;20453;-84
2023/08/02 07:39:32;;;;;;;4.13;1.42;;;;;;;;;;4876767;29;20112;-87
2023/08/02 07:42:01;;;;;;;6.22;1.85;;;;;;;;;;4879283;29;20488;-82
2023/08/02 07:44:27;;;;;;;5.00;2.35;;;;;;;;;;4885655;29;20036;-82
2023/08/02 07:46:53;;;;;;;4.53;1.77;;;;;;;;;;4885606;29;20495;-82
2023/08/02 07:49:20;;;;;;;5.35;1.67;;;;;;;;;;4902125;29;20021;-81
2023/08/02 07:51:49;;;;;;;5.22;1.65;;;;;;;;;;4901602;29;20044;-82
2023/08/02 07:54:19;;;;;;;4.93;1.67;;;;;;;;;;4900869;29;20074;-85
2023/08/02 07:56:45;;;;;;;5.22;2.00;;;;;;;;;;4900161;29;20037;-85
2023/08/02 07:59:10;;;;;;;4.13;1.48;;;;;;;;;;4852865;29;20071;-84
2023/08/02 08:01:36;;;;;;;4.68;1.52;;;;;;;;;;4863582;29;20030;-84
2023/08/02 08:04:02;;;;;;;4.72;1.48;;;;;;;;;;4862865;29;20037;-85
2023/08/02 08:06:27;;;;;;;3.55;1.60;;;;;;;;;;4862415;29;20037;-87
2023/08/02 08:08:53;;;;;;;5.25;1.38;;;;;;;;;;4855512;29;20038;-85
2023/08/02 08:11:18;;;;;;;6.43;1.73;;;;;;;;;;4852206;29;20326;-86
2023/08/02 08:13:44;;;;;;;4.55;1.88;;;;;;;;;;4859387;29;20037;-83
2023/08/02 08:16:10;;;;;;;5.47;1.92;;;;;;;;;;4878427;29;20093;-85
2023/08/02 08:18:36;;;;;;;6.30;1.98;;;;;;;;;;4883061;29;20058;-82
2023/08/02 08:21:03;;;;;;;5.97;1.60;;;;;;;;;;4872440;29;20057;-85
2023/08/02 08:23:29;;;;;;;10.20;2.20;;;;;;;;;;4858970;29;20041;-85
2023/08/02 08:25:55;;;;;;;10.20;1.88;;;;;;;;;;4868696;29;20064;-85
2023/08/02 08:28:20;;;;;;;5.82;1.65;;;;;;;;;;4868620;29;20021;-81
2023/08/02 08:30:46;;;;;;;4.05;1.58;;;;;;;;;;4891391;29;20058;-84
2023/08/02 08:33:12;;;;;;;6.70;1.70;;;;;;;;;;4866648;29;20022;-87
2023/08/02 08:35:37;;;;;;;8.90;1.85;;;;;;;;;;4872659;29;20314;-85
2023/08/02 08:38:03;;;;;;;4.88;1.85;;;;;;;;;;4862120;29;20059;-87
2023/08/02 08:40:29;;;;;;;4.28;2.00;;;;;;;;;;4880124;29;20060;-82
2023/08/02 08:42:56;;;;;;;5.32;1.80;;;;;;;;;;4873868;29;20029;-80
2023/08/02 08:45:24;;;;;;;6.10;1.90;;;;;;;;;;4889457;29;20037;-81
2023/08/02 08:47:52;;;;;;;6.30;1.90;;;;;;;;;;4890937;29;20034;-81
2023/08/02 08:50:21;;;;;;;4.07;1.67;;;;;;;;;;4883532;29;20137;-81
2023/08/02 08:52:48;;;;;;;5.85;2.10;;;;;;;;;;4860804;29;20229;-86
2023/08/02 08:55:14;;;;;;;4.97;1.85;;;;;;;;;;4875242;29;20453;-86
2023/08/02 08:57:40;;;;;;;5.30;2.33;;;;;;;;;;4860439;29;20441;-87
2023/08/02 09:00:09;;;;;;;4.47;2.17;;;;;;;;;;4844470;29;20082;-86
2023/08/02 09:02:37;;;;;;;9.38;2.13;;;;;;;;;;4877109;29;20128;-86
2023/08/02 09:05:06;;;;;;;4.38;1.73;;;;;;;;;;4853336;29;20025;-83
2023/08/02 09:07:33;;;;;;;7.57;1.88;;;;;;;;;;4886696;29;20041;-83
2023/08/02 09:09:58;;;;;;;6.88;1.90;;;;;;;;;;4867728;29;20029;-85
2023/08/02 09:12:24;;;;;;;5.32;1.67;;;;;;;;;;4861896;29;20065;-84
2023/08/02 09:15:01;;;;;;;8.13;2.20;;;;;;;;;;4899394;29;20062;-86
2023/08/02 09:17:27;;;;;;;8.13;2.42;;;;;;;;;;4874705;29;20030;-88
2023/08/02 09:20:19;;;;;;;5.03;2.08;;;;;;;;;;4858786;29;20049;-88
2023/08/02 09:22:45;;;;;;;4.97;2.17;;;;;;;;;;4843869;29;20045;-88
2023/08/02 09:25:19;;;;;;;6.38;2.00;;;;;;;;;;4876196;29;20089;-88
2023/08/02 09:27:45;;;;;;;5.40;2.35;;;;;;;;;;4868825;29;20034;-88
2023/08/02 09:30:21;;;;;;;5.05;2.13;;;;;;;;;;4832560;29;20125;-87
2023/08/02 09:32:57;;;;;;;8.35;2.13;;;;;;;;;;4874077;29;20072;-88
2023/08/02 09:35:22;;;;;;;5.47;2.00;;;;;;;;;;4859876;29;20024;-85
2023/08/02 09:37:48;;;;;;;11.20;2.50;;;;;;;;;;4872392;29;20037;-88
2023/08/02 09:40:14;;;;;;;4.55;1.88;;;;;;;;;;4872276;29;20036;-87
2023/08/02 09:42:40;;;;;;;6.90;2.20;;;;;;;;;;4872806;29;20040;-87
2023/08/02 09:45:08;;;;;;;4.78;1.90;;;;;;;;;;4873334;29;20407;-87
2023/08/02 09:47:34;;;;;;;6.32;2.10;;;;;;;;;;4856779;29;20081;-86
2023/08/02 09:50:02;;;;;;;6.13;2.13;;;;;;;;;;4873181;29;20045;-85
2023/08/02 09:52:29;;;;;;;5.53;1.83;;;;;;;;;;4875108;29;20101;-83
2023/08/02 09:54:54;;;;;;;6.40;2.33;;;;;;;;;;4872914;29;20038;-84
2023/08/02 09:57:27;;;;;;;4.93;2.20;;;;;;;;;;4862216;29;20041;-87
2023/08/02 09:59:54;;;;;;;7.22;2.20;;;;;;;;;;4859782;29;20081;-84
2023/08/02 10:02:23;;;;;;;6.68;1.88;;;;;;;;;;4871381;29;20037;-85
2023/08/02 10:04:49;;;;;;;5.70;2.10;;;;;;;;;;4870221;29;20033;-86
2023/08/02 10:07:16;;;;;;;7.88;2.15;;;;;;;;;;4888314;29;20081;-88
2023/08/02 10:09:42;;;;;;;5.13;2.05;;;;;;;;;;4892278;29;20048;-86
2023/08/02 10:12:11;;;;;;;7.45;2.33;;;;;;;;;;4866213;29;20037;-85
2023/08/02 10:14:37;;;;;;;6.50;2.13;;;;;;;;;;4898447;29;20072;-86
2023/08/02 10:17:03;;;;;;;7.13;1.70;;;;;;;;;;4876111;29;20041;-86
2023/08/02 10:19:30;;;;;;;4.70;1.80;;;;;;;;;;4873904;29;20033;-87
2023/08/02 10:22:06;;;;;;;5.00;1.50;;;;;;;;;;4876575;29;20026;-85
2023/08/02 10:24:32;;;;;;;8.23;1.42;;;;;;;;;;4896127;29;20041;-88
2023/08/02 10:27:00;;;;;;;5.15;1.65;;;;;;;;;;4880045;29;20037;-86
2023/08/02 10:29:30;;;;;;;4.32;1.98;;;;;;;;;;4874579;29;20053;-88
2023/08/02 10:32:09;;;;;;;5.60;2.00;;;;;;;;;;4890380;29;20101;-90
2023/08/02 10:34:35;;;;;;;4.75;1.60;;;;;;;;;;4874910;29;20065;-88
2023/08/02 10:37:02;;;;;;;5.28;1.77;;;;;;;;;;4893590;29;20053;-89
2023/08/02 10:39:53;;;;;;;6.45;2.03;;;;;;;;;;4896545;29;20037;-89
2023/08/02 10:42:26;;;;;;;14.05;3.40;;;;;;;;;;4877265;29;20108;-89
2023/08/02 10:44:55;;;;;;;4.50;1.90;;;;;;;;;;4892122;29;20052;-88
2023/08/02 10:47:32;;;;;;;3.35;1.45;;;;;;;;;;4891268;29;20041;-89
2023/08/02 10:49:58;;;;;;;3.25;1.50;;;;;;;;;;4879504;29;20033;-88
2023/08/02 10:52:32;;;;;;;5.53;1.40;;;;;;;;;;4876652;29;20041;-88
2023/08/02 10:55:07;;;;;;;4.38;1.80;;;;;;;;;;4876527;29;20037;-88
2023/08/02 10:57:34;;;;;;;4.85;1.75;;;;;;;;;;4874666;29;20041;-88
2023/08/02 11:00:14;;;;;;;16.13;2.85;;;;;;;;;;4862935;29;20030;-89
2023/08/02 11:02:44;;;;;;;6.13;1.70;;;;;;;;;;4881664;29;20042;-87
2023/08/02 11:05:12;;;;;;;3.88;1.77;;;;;;;;;;4896266;29;20030;-87
2023/08/02 11:07:37;;;;;;;4.13;1.75;;;;;;;;;;4890662;29;20038;-89
2023/08/02 11:10:06;;;;;;;8.63;2.17;;;;;;;;;;4859590;29;20075;-88
2023/08/02 11:12:33;;;;;;;6.32;2.00;;;;;;;;;;4887728;29;20058;-87
2023/08/02 11:14:59;;;;;;;5.43;1.60;;;;;;;;;;4870965;29;20041;-88
2023/08/02 11:17:25;;;;;;;3.83;1.77;;;;;;;;;;4872527;29;20045;-86
2023/08/02 11:19:54;;;;;;;4.82;1.92;;;;;;;;;;4854908;29;20033;-85
2023/08/02 11:22:20;;;;;;;5.15;2.13;;;;;;;;;;4850558;29;20026;-86
2023/08/02 11:24:47;;;;;;;4.82;1.73;;;;;;;;;;4866952;29;20037;-87
2023/08/02 11:27:20;;;;;;;7.03;1.90;;;;;;;;;;4849587;29;20116;-87
2023/08/02 11:29:59;;;;;;;3.75;1.70;;;;;;;;;;4879775;29;20057;-88
2023/08/02 11:32:25;;;;;;;4.15;1.60;;;;;;;;;;4850057;29;20034;-88
2023/08/02 11:34:51;;;;;;;6.20;1.67;;;;;;;;;;4865616;29;20044;-88
2023/08/02 11:37:17;;;;;;;4.70;1.58;;;;;;;;;;4848929;29;20504;-87
2023/08/02 11:39:50;;;;;;;5.95;1.63;;;;;;;;;;4880330;29;20033;-87
2023/08/02 11:42:16;;;;;;;4.60;1.73;;;;;;;;;;4865271;29;20552;-87
2023/08/02 11:44:45;;;;;;;5.15;1.90;;;;;;;;;;4879152;29;20081;-86
2023/08/02 11:47:11;;;;;;;5.35;1.73;;;;;;;;;;4864247;29;20433;-87
2023/08/02 11:49:52;;;;;;;5.95;1.67;;;;;;;;;;4848966;29;20030;-86
2023/08/02 11:52:27;;;;;;;4.90;1.88;;;;;;;;;;4880580;29;20042;-86
2023/08/02 11:54:53;;;;;;;4.60;1.70;;;;;;;;;;4849341;29;20049;-86
2023/08/02 11:57:20;;;;;;;7.68;1.73;;;;;;;;;;4851409;29;20069;-86
2023/08/02 11:59:47;;;;;;;4.13;1.60;;;;;;;;;;4868680;29;20105;-87
2023/08/02 12:02:25;;;;;;;4.57;1.58;;;;;;;;;;4868567;29;20037;-85
2023/08/02 12:04:50;;;;;;;5.30;1.90;;;;;;;;;;4890379;29;20034;-86
2023/08/02 12:07:26;;;;;;;4.80;1.80;;;;;;;;;;4888617;29;20416;-85
2023/08/02 12:09:52;;;;;;;10.02;1.83;;;;;;;;;;4856276;29;20041;-88
2023/08/02 12:12:19;;;;;;;7.75;1.73;;;;;;;;;;4858985;29;20041;-86
2023/08/02 12:14:45;;;;;;;4.65;1.55;;;;;;;;;;4894162;29;20060;-88
2023/08/02 12:17:18;;;;;;;3.42;1.58;;;;;;;;;;4873602;29;20044;-88
2023/08/02 12:19:44;;;;;;;4.78;1.45;;;;;;;;;;4871877;29;20048;-88
2023/08/02 12:22:10;;;;;;;6.35;1.60;;;;;;;;;;4874461;29;20030;-87
2023/08/02 12:24:36;;;;;;;4.90;1.50;;;;;;;;;;4865715;29;20101;-88
2023/08/02 12:27:17;;;;;;;4.35;1.38;;;;;;;;;;4861748;29;20033;-88
2023/08/02 12:29:44;;;;;;;4.72;1.33;;;;;;;;;;4876464;29;20033;-88
2023/08/02 12:32:26;;;;;;;5.43;1.48;;;;;;;;;;4867225;29;20541;-86
2023/08/02 12:34:52;;;;;;;6.85;1.90;;;;;;;;;;4880699;29;20064;-87
2023/08/02 12:37:18;;;;;;;7.07;1.40;;;;;;;;;;4865061;29;20097;-88
2023/08/02 12:39:44;;;;;;;3.05;1.20;;;;;;;;;;4864195;29;20034;-87
2023/08/02 12:42:10;;;;;;;9.40;1.88;;;;;;;;;;4879735;29;20065;-88
2023/08/02 12:44:36;;;;;;;2.67;1.10;;;;;;;;;;4862668;29;20078;-87
2023/08/02 12:47:01;;;;;;;3.25;1.05;;;;;;;;;;4861943;29;20089;-87
2023/08/02 12:49:27;;;;;;;2.22;1.10;;;;;;;;;;4833822;29;20048;-86
2023/08/02 12:51:53;;;;;;;2.90;1.20;;;;;;;;;;4870560;29;20033;-86
2023/08/02 12:54:19;;;;;;;8.80;1.98;;;;;;;;;;4870513;29;20038;-85
2023/08/02 12:56:44;;;;;;;3.15;1.35;;;;;;;;;;4843018;29;20106;-85
2023/08/02 12:59:10;;;;;;;2.72;1.30;;;;;;;;;;4859636;29;20033;-85
2023/08/02 13:01:37;;;;;;;2.65;1.10;;;;;;;;;;4860398;29;20022;-86
2023/08/02 13:04:04;;;;;;;5.60;1.40;;;;;;;;;;4860574;29;20041;-87
2023/08/02 13:06:30;;;;;;;7.72;1.25;;;;;;;;;;4861605;29;20037;-86
2023/08/02 13:08:56;;;;;;;8.52;2.75;;;;;;;;;;4861781;29;20042;-87
2023/08/02 13:11:21;;;;;;;2.55;1.30;;;;;;;;;;4864260;29;20026;-86
2023/08/02 13:13:47;;;;;;;2.35;1.38;;;;;;;;;;4862935;29;20053;-87
2023/08/02 13:16:13;;;;;;;4.20;1.13;;;;;;;;;;4847223;29;20097;-86
2023/08/02 13:18:39;;;;;;;6.20;1.40;;;;;;;;;;4886037;29;20063;-87
2023/08/02 13:21:06;;;;;;;5.40;1.25;;;;;;;;;;4872821;29;20025;-87
2023/08/02 13:23:32;;;;;;;3.42;1.33;;;;;;;;;;4879415;29;20030;-86
2023/08/02 13:25:57;;;;;;;3.67;1.20;;;;;;;;;;4848168;29;20084;-85
2023/08/02 13:28:23;;;;;;;4.72;1.60;;;;;;;;;;4851562;29;20085;-87
2023/08/02 13:30:49;;;;;;;3.15;1.40;;;;;;;;;;4881045;29;20454;-86
2023/08/02 13:33:14;;;;;;;2.72;1.30;;;;;;;;;;4870025;29;20048;-84
2023/08/02 13:35:40;;;;;;;5.65;1.65;;;;;;;;;;4846164;29;20048;-86
2023/08/02 13:38:06;;;;;;;3.42;1.30;;;;;;;;;;4862003;29;20034;-88
2023/08/02 13:40:33;;;;;;;2.53;1.20;;;;;;;;;;4845769;29;20065;-87
2023/08/02 13:43:00;;;;;;;3.95;1.70;;;;;;;;;;4878013;29;20540;-86
2023/08/02 13:45:26;;;;;;;3.95;1.55;;;;;;;;;;4877299;29;20044;-86
2023/08/02 13:47:51;;;;;;;4.93;1.42;;;;;;;;;;4877010;29;20041;-85
2023/08/02 13:50:17;;;;;;;2.83;1.27;;;;;;;;;;4861009;29;20030;-85
2023/08/02 13:52:43;;;;;;;3.30;1.40;;;;;;;;;;4876070;29;20049;-86
2023/08/02 13:55:09;;;;;;;3.20;1.52;;;;;;;;;;4879390;29;20103;-85
2023/08/02 13:57:34;;;;;;;6.60;1.60;;;;;;;;;;4881398;29;20053;-85
2023/08/02 14:00:00;;;;;;;4.72;1.42;;;;;;;;;;4883598;29;20062;-85
2023/08/02 14:02:30;;;;;;;3.58;1.45;;;;;;;;;;4883783;29;20026;-84
2023/08/02 14:04:56;;;;;;;5.75;1.67;;;;;;;;;;4871245;29;20032;-85
2023/08/02 14:07:22;;;;;;;2.47;1.30;;;;;;;;;;4868687;29;20038;-87
2023/08/02 14:09:47;;;;;;;6.65;1.75;;;;;;;;;;4880652;29;20045;-87
2023/08/02 14:12:19;;;;;;;544.30;330.83;;;;;;;;;;4884884;29;20041;-92
2023/08/02 14:14:44;;;;;;;7.03;3.72;;;;;;;;;;4868476;29;20036;-79
2023/08/02 14:17:10;;;;;;;8.35;3.47;;;;;;;;;;4880147;29;20044;-81
2023/08/02 14:19:36;;;;;;;3.05;1.58;;;;;;;;;;4879611;29;20519;-82
2023/08/02 14:22:02;;;;;;;6.85;3.15;;;;;;;;;;4879710;29;20052;-79
2023/08/02 14:24:27;;;;;;;5.75;2.55;;;;;;;;;;4880693;29;20113;-79
2023/08/02 14:26:53;;;;;;;4.20;2.20;;;;;;;;;;4881621;29;20100;-79
2023/08/02 14:29:18;;;;;;;5.45;3.22;;;;;;;;;;4880277;29;20029;-81
2023/08/02 14:31:44;;;;;;;4.03;2.15;;;;;;;;;;4882395;29;20029;-80
2023/08/02 14:34:09;;;;;;;5.68;2.10;;;;;;;;;;4864893;29;20549;-80
2023/08/02 14:36:35;;;;;;;4.43;1.38;;;;;;;;;;4879952;29;20033;-79
2023/08/02 14:39:01;;;;;;;5.55;2.00;;;;;;;;;;4880187;29;20428;-80
2023/08/02 14:41:26;;;;;;;3.30;1.55;;;;;;;;;;4879648;29;20040;-82